sensor_id;sensor_type;location;lat;lon;timestamp;P1;durP1;ratioP1;P2;durP2;ratioP2
19193;SDS011;9729;52.296;13.260;2023-08-21T00:01:55;13.17;;;10.30;;
19193;SDS011;9729;52.296;13.260;2023-08-21T00:04:22;16.20;;;10.10;;
19193;SDS011;9729;52.296;13.260;2023-08-21T00:06:48;15.53;;;10.80;;
19193;SDS011;9729;52.296;13.260;2023-08-21T00:09:14;12.37;;;11.07;;
19193;SDS011;9729;52.296;13.260;2023-08-21T00:11:41;13.43;;;11.13;;
19193;SDS011;9729;52.296;13.260;2023-08-21T00:14:07;12.37;;;9.80;;
19193;SDS011;9729;52.296;13.260;2023-08-21T00:16:35;15.10;;;11.17;;
19193;SDS011;9729;52.296;13.260;2023-08-21T00:19:01;11.70;;;10.60;;
19193;SDS011;9729;52.296;13.260;2023-08-21T00:21:28;15.13;;;10.97;;
19193;SDS011;9729;52.296;13.260;2023-08-21T00:23:54;14.43;;;10.83;;
19193;SDS011;9729;52.296;13.260;2023-08-21T00:26:20;14.37;;;11.60;;
19193;SDS011;9729;52.296;13.260;2023-08-21T00:28:47;14.73;;;11.90;;
19193;SDS011;9729;52.296;13.260;2023-08-21T00:31:13;13.37;;;11.43;;
19193;SDS011;9729;52.296;13.260;2023-08-21T00:33:41;17.23;;;12.37;;
19193;SDS011;9729;52.296;13.260;2023-08-21T00:36:08;13.13;;;11.83;;
19193;SDS011;9729;52.296;13.260;2023-08-21T00:38:34;13.70;;;12.17;;
19193;SDS011;9729;52.296;13.260;2023-08-21T00:41:00;15.67;;;13.20;;
19193;SDS011;9729;52.296;13.260;2023-08-21T00:43:27;14.67;;;13.03;;
19193;SDS011;9729;52.296;13.260;2023-08-21T00:45:53;16.00;;;13.27;;
19193;SDS011;9729;52.296;13.260;2023-08-21T00:48:20;14.57;;;13.07;;
19193;SDS011;9729;52.296;13.260;2023-08-21T00:50:47;15.83;;;12.40;;
19193;SDS011;9729;52.296;13.260;2023-08-21T00:53:14;15.87;;;14.27;;
19193;SDS011;9729;52.296;13.260;2023-08-21T00:55:41;14.70;;;13.00;;
19193;SDS011;9729;52.296;13.260;2023-08-21T00:58:08;15.10;;;13.27;;
19193;SDS011;9729;52.296;13.260;2023-08-21T01:00:35;15.47;;;13.53;;
19193;SDS011;9729;52.296;13.260;2023-08-21T01:03:02;14.60;;;13.30;;
19193;SDS011;9729;52.296;13.260;2023-08-21T01:05:28;15.50;;;13.90;;
19193;SDS011;9729;52.296;13.260;2023-08-21T01:07:59;19.37;;;14.77;;
19193;SDS011;9729;52.296;13.260;2023-08-21T01:10:31;18.97;;;13.80;;
19193;SDS011;9729;52.296;13.260;2023-08-21T01:13:05;17.93;;;13.30;;
19193;SDS011;9729;52.296;13.260;2023-08-21T01:15:34;15.43;;;13.80;;
19193;SDS011;9729;52.296;13.260;2023-08-21T01:18:02;17.90;;;14.40;;
19193;SDS011;9729;52.296;13.260;2023-08-21T01:20:29;15.60;;;14.10;;
19193;SDS011;9729;52.296;13.260;2023-08-21T01:22:57;15.63;;;14.17;;
19193;SDS011;9729;52.296;13.260;2023-08-21T01:25:31;22.63;;;14.40;;
19193;SDS011;9729;52.296;13.260;2023-08-21T01:27:58;15.00;;;13.40;;
19193;SDS011;9729;52.296;13.260;2023-08-21T01:30:24;20.20;;;15.43;;
19193;SDS011;9729;52.296;13.260;2023-08-21T01:32:55;17.23;;;14.30;;
19193;SDS011;9729;52.296;13.260;2023-08-21T01:35:25;18.23;;;14.83;;
19193;SDS011;9729;52.296;13.260;2023-08-21T01:37:52;17.00;;;15.23;;
19193;SDS011;9729;52.296;13.260;2023-08-21T01:40:20;16.00;;;14.30;;
19193;SDS011;9729;52.296;13.260;2023-08-21T01:42:48;18.50;;;14.33;;
19193;SDS011;9729;52.296;13.260;2023-08-21T01:45:15;18.67;;;16.40;;
19193;SDS011;9729;52.296;13.260;2023-08-21T01:47:41;17.03;;;15.47;;
19193;SDS011;9729;52.296;13.260;2023-08-21T01:50:08;17.53;;;15.73;;
19193;SDS011;9729;52.296;13.260;2023-08-21T01:52:34;17.73;;;15.93;;
19193;SDS011;9729;52.296;13.260;2023-08-21T01:55:01;18.20;;;16.30;;
19193;SDS011;9729;52.296;13.260;2023-08-21T01:57:28;19.20;;;16.90;;
19193;SDS011;9729;52.296;13.260;2023-08-21T01:59:56;19.30;;;16.47;;
19193;SDS011;9729;52.296;13.260;2023-08-21T02:02:22;17.93;;;16.17;;
19193;SDS011;9729;52.296;13.260;2023-08-21T02:04:49;17.43;;;15.47;;
19193;SDS011;9729;52.296;13.260;2023-08-21T02:07:15;19.07;;;16.57;;
19193;SDS011;9729;52.296;13.260;2023-08-21T02:09:41;17.30;;;15.40;;
19193;SDS011;9729;52.296;13.260;2023-08-21T02:12:08;17.53;;;15.73;;
19193;SDS011;9729;52.296;13.260;2023-08-21T02:14:34;18.13;;;16.23;;
19193;SDS011;9729;52.296;13.260;2023-08-21T02:17:02;19.43;;;16.97;;
19193;SDS011;9729;52.296;13.260;2023-08-21T02:19:28;18.63;;;16.93;;
19193;SDS011;9729;52.296;13.260;2023-08-21T02:21:54;18.77;;;15.63;;
19193;SDS011;9729;52.296;13.260;2023-08-21T02:24:21;23.20;;;17.20;;
19193;SDS011;9729;52.296;13.260;2023-08-21T02:26:47;20.87;;;17.77;;
19193;SDS011;9729;52.296;13.260;2023-08-21T02:29:13;24.93;;;17.27;;
19193;SDS011;9729;52.296;13.260;2023-08-21T02:31:40;23.40;;;17.33;;
19193;SDS011;9729;52.296;13.260;2023-08-21T02:34:07;20.43;;;18.23;;
19193;SDS011;9729;52.296;13.260;2023-08-21T02:36:34;24.10;;;17.67;;
19193;SDS011;9729;52.296;13.260;2023-08-21T02:39:00;21.50;;;17.63;;
19193;SDS011;9729;52.296;13.260;2023-08-21T02:41:28;21.40;;;18.10;;
19193;SDS011;9729;52.296;13.260;2023-08-21T02:43:55;24.77;;;18.50;;
19193;SDS011;9729;52.296;13.260;2023-08-21T02:46:21;23.17;;;19.00;;
19193;SDS011;9729;52.296;13.260;2023-08-21T02:48:47;18.87;;;17.03;;
19193;SDS011;9729;52.296;13.260;2023-08-21T02:51:15;20.47;;;17.97;;
19193;SDS011;9729;52.296;13.260;2023-08-21T02:53:41;20.50;;;18.27;;
19193;SDS011;9729;52.296;13.260;2023-08-21T02:56:08;25.67;;;18.13;;
19193;SDS011;9729;52.296;13.260;2023-08-21T02:58:34;25.33;;;19.27;;
19193;SDS011;9729;52.296;13.260;2023-08-21T03:01:00;23.53;;;18.33;;
19193;SDS011;9729;52.296;13.260;2023-08-21T03:03:27;21.90;;;17.50;;
19193;SDS011;9729;52.296;13.260;2023-08-21T03:05:53;21.60;;;17.90;;
19193;SDS011;9729;52.296;13.260;2023-08-21T03:08:20;24.20;;;20.03;;
19193;SDS011;9729;52.296;13.260;2023-08-21T03:10:47;22.73;;;19.20;;
19193;SDS011;9729;52.296;13.260;2023-08-21T03:13:13;24.10;;;18.30;;
19193;SDS011;9729;52.296;13.260;2023-08-21T03:15:39;23.70;;;19.47;;
19193;SDS011;9729;52.296;13.260;2023-08-21T03:18:06;22.20;;;18.97;;
19193;SDS011;9729;52.296;13.260;2023-08-21T03:20:32;21.63;;;19.30;;
19193;SDS011;9729;52.296;13.260;2023-08-21T03:22:58;26.37;;;18.73;;
19193;SDS011;9729;52.296;13.260;2023-08-21T03:25:26;26.50;;;18.83;;
19193;SDS011;9729;52.296;13.260;2023-08-21T03:27:53;20.77;;;18.43;;
19193;SDS011;9729;52.296;13.260;2023-08-21T03:30:19;24.63;;;18.57;;
19193;SDS011;9729;52.296;13.260;2023-08-21T03:32:46;22.53;;;18.20;;
19193;SDS011;9729;52.296;13.260;2023-08-21T03:35:12;22.20;;;18.63;;
19193;SDS011;9729;52.296;13.260;2023-08-21T03:37:39;19.00;;;16.97;;
19193;SDS011;9729;52.296;13.260;2023-08-21T03:40:06;19.00;;;17.10;;
19193;SDS011;9729;52.296;13.260;2023-08-21T03:42:34;22.83;;;16.17;;
19193;SDS011;9729;52.296;13.260;2023-08-21T03:45:00;18.07;;;16.17;;
19193;SDS011;9729;52.296;13.260;2023-08-21T03:47:28;21.38;;;18.85;;
19193;SDS011;9729;52.296;13.260;2023-08-21T03:49:55;18.33;;;16.57;;
19193;SDS011;9729;52.296;13.260;2023-08-21T03:52:21;18.33;;;16.43;;
19193;SDS011;9729;52.296;13.260;2023-08-21T03:54:47;22.33;;;17.23;;
19193;SDS011;9729;52.296;13.260;2023-08-21T03:57:14;18.10;;;16.20;;
19193;SDS011;9729;52.296;13.260;2023-08-21T03:59:41;17.93;;;16.23;;
19193;SDS011;9729;52.296;13.260;2023-08-21T04:02:08;20.30;;;18.38;;
19193;SDS011;9729;52.296;13.260;2023-08-21T04:04:34;20.17;;;16.97;;
19193;SDS011;9729;52.296;13.260;2023-08-21T04:07:01;21.17;;;16.60;;
19193;SDS011;9729;52.296;13.260;2023-08-21T04:09:27;18.73;;;16.00;;
19193;SDS011;9729;52.296;13.260;2023-08-21T04:11:53;17.37;;;15.53;;
19193;SDS011;9729;52.296;13.260;2023-08-21T04:14:20;17.30;;;15.63;;
19193;SDS011;9729;52.296;13.260;2023-08-21T04:16:47;18.73;;;16.77;;
19193;SDS011;9729;52.296;13.260;2023-08-21T04:19:14;18.80;;;16.63;;
19193;SDS011;9729;52.296;13.260;2023-08-21T04:21:40;18.20;;;15.27;;
19193;SDS011;9729;52.296;13.260;2023-08-21T04:24:06;19.73;;;15.53;;
19193;SDS011;9729;52.296;13.260;2023-08-21T04:26:33;19.43;;;15.30;;
19193;SDS011;9729;52.296;13.260;2023-08-21T04:28:59;18.20;;;15.67;;
19193;SDS011;9729;52.296;13.260;2023-08-21T04:31:25;18.70;;;15.77;;
19193;SDS011;9729;52.296;13.260;2023-08-21T04:33:53;18.73;;;16.73;;
19193;SDS011;9729;52.296;13.260;2023-08-21T04:36:19;19.03;;;15.93;;
19193;SDS011;9729;52.296;13.260;2023-08-21T04:38:46;18.80;;;16.57;;
19193;SDS011;9729;52.296;13.260;2023-08-21T04:41:12;17.20;;;15.37;;
19193;SDS011;9729;52.296;13.260;2023-08-21T04:43:38;17.97;;;14.43;;
19193;SDS011;9729;52.296;13.260;2023-08-21T04:46:05;18.33;;;16.33;;
19193;SDS011;9729;52.296;13.260;2023-08-21T04:48:31;16.70;;;14.60;;
19193;SDS011;9729;52.296;13.260;2023-08-21T04:50:59;21.87;;;15.30;;
19193;SDS011;9729;52.296;13.260;2023-08-21T04:53:25;19.27;;;15.73;;
19193;SDS011;9729;52.296;13.260;2023-08-21T04:55:51;19.80;;;15.03;;
19193;SDS011;9729;52.296;13.260;2023-08-21T04:58:18;17.07;;;15.33;;
19193;SDS011;9729;52.296;13.260;2023-08-21T05:00:44;23.93;;;15.60;;
19193;SDS011;9729;52.296;13.260;2023-08-21T05:03:11;17.83;;;15.93;;
19193;SDS011;9729;52.296;13.260;2023-08-21T05:05:37;17.53;;;15.63;;
19193;SDS011;9729;52.296;13.260;2023-08-21T05:08:05;17.57;;;15.73;;
19193;SDS011;9729;52.296;13.260;2023-08-21T05:10:31;17.10;;;15.30;;
19193;SDS011;9729;52.296;13.260;2023-08-21T05:12:58;17.57;;;15.33;;
19193;SDS011;9729;52.296;13.260;2023-08-21T05:15:24;19.33;;;16.13;;
19193;SDS011;9729;52.296;13.260;2023-08-21T05:17:50;20.15;;;16.98;;
19193;SDS011;9729;52.296;13.260;2023-08-21T05:20:17;18.57;;;16.20;;
19193;SDS011;9729;52.296;13.260;2023-08-21T05:22:43;15.80;;;14.30;;
19193;SDS011;9729;52.296;13.260;2023-08-21T05:25:11;16.40;;;14.80;;
19193;SDS011;9729;52.296;13.260;2023-08-21T05:27:37;15.17;;;13.60;;
19193;SDS011;9729;52.296;13.260;2023-08-21T05:30:04;18.40;;;14.70;;
19193;SDS011;9729;52.296;13.260;2023-08-21T05:32:31;16.00;;;14.57;;
19193;SDS011;9729;52.296;13.260;2023-08-21T05:34:58;16.17;;;14.43;;
19193;SDS011;9729;52.296;13.260;2023-08-21T05:37:24;17.77;;;14.53;;
19193;SDS011;9729;52.296;13.260;2023-08-21T05:39:51;16.10;;;14.53;;
19193;SDS011;9729;52.296;13.260;2023-08-21T05:42:19;16.13;;;14.52;;
19193;SDS011;9729;52.296;13.260;2023-08-21T05:44:46;17.63;;;15.43;;
19193;SDS011;9729;52.296;13.260;2023-08-21T05:47:12;17.03;;;14.53;;
19193;SDS011;9729;52.296;13.260;2023-08-21T05:49:38;16.63;;;14.32;;
19193;SDS011;9729;52.296;13.260;2023-08-21T05:52:05;16.00;;;14.25;;
19193;SDS011;9729;52.296;13.260;2023-08-21T05:54:31;15.70;;;13.70;;
19193;SDS011;9729;52.296;13.260;2023-08-21T05:56:57;16.20;;;13.80;;
19193;SDS011;9729;52.296;13.260;2023-08-21T05:59:29;15.52;;;13.95;;
19193;SDS011;9729;52.296;13.260;2023-08-21T06:01:56;15.32;;;13.77;;
19193;SDS011;9729;52.296;13.260;2023-08-21T06:04:22;15.05;;;13.55;;
19193;SDS011;9729;52.296;13.260;2023-08-21T06:06:49;15.25;;;13.88;;
19193;SDS011;9729;52.296;13.260;2023-08-21T06:09:15;16.98;;;14.30;;
19193;SDS011;9729;52.296;13.260;2023-08-21T06:11:42;16.80;;;14.07;;
19193;SDS011;9729;52.296;13.260;2023-08-21T06:14:09;14.98;;;13.60;;
19193;SDS011;9729;52.296;13.260;2023-08-21T06:16:36;14.88;;;13.50;;
19193;SDS011;9729;52.296;13.260;2023-08-21T06:19:03;17.35;;;14.15;;
19193;SDS011;9729;52.296;13.260;2023-08-21T06:21:29;16.95;;;14.40;;
19193;SDS011;9729;52.296;13.260;2023-08-21T06:23:55;17.60;;;14.65;;
19193;SDS011;9729;52.296;13.260;2023-08-21T06:26:22;18.40;;;13.60;;
19193;SDS011;9729;52.296;13.260;2023-08-21T06:28:48;18.13;;;13.75;;
19193;SDS011;9729;52.296;13.260;2023-08-21T06:31:14;14.65;;;13.18;;
19193;SDS011;9729;52.296;13.260;2023-08-21T06:33:42;16.35;;;13.73;;
19193;SDS011;9729;52.296;13.260;2023-08-21T06:36:08;14.95;;;13.35;;
19193;SDS011;9729;52.296;13.260;2023-08-21T06:38:35;21.75;;;13.40;;
19193;SDS011;9729;52.296;13.260;2023-08-21T06:41:01;14.70;;;13.27;;
19193;SDS011;9729;52.296;13.260;2023-08-21T06:43:27;14.60;;;13.15;;
19193;SDS011;9729;52.296;13.260;2023-08-21T06:45:54;14.23;;;12.73;;
19193;SDS011;9729;52.296;13.260;2023-08-21T06:48:20;13.15;;;11.60;;
19193;SDS011;9729;52.296;13.260;2023-08-21T06:50:48;14.45;;;12.55;;
19193;SDS011;9729;52.296;13.260;2023-08-21T06:53:14;13.43;;;12.13;;
19193;SDS011;9729;52.296;13.260;2023-08-21T06:55:40;15.45;;;11.60;;
19193;SDS011;9729;52.296;13.260;2023-08-21T06:58:07;14.77;;;10.13;;
19193;SDS011;9729;52.296;13.260;2023-08-21T07:00:33;10.80;;;9.85;;
19193;SDS011;9729;52.296;13.260;2023-08-21T07:02:59;14.35;;;11.02;;
19193;SDS011;9729;52.296;13.260;2023-08-21T07:05:26;11.35;;;10.15;;
19193;SDS011;9729;52.296;13.260;2023-08-21T07:07:53;13.70;;;10.00;;
19193;SDS011;9729;52.296;13.260;2023-08-21T07:10:20;14.32;;;10.45;;
19193;SDS011;9729;52.296;13.260;2023-08-21T07:12:46;10.70;;;9.60;;
19193;SDS011;9729;52.296;13.260;2023-08-21T07:15:13;14.90;;;8.95;;
19193;SDS011;9729;52.296;13.260;2023-08-21T07:17:40;10.93;;;8.63;;
19193;SDS011;9729;52.296;13.260;2023-08-21T07:20:07;12.98;;;8.15;;
19193;SDS011;9729;52.296;13.260;2023-08-21T07:22:34;11.95;;;8.25;;
19193;SDS011;9729;52.296;13.260;2023-08-21T07:25:01;12.57;;;8.85;;
19193;SDS011;9729;52.296;13.260;2023-08-21T07:27:29;11.55;;;8.10;;
19193;SDS011;9729;52.296;13.260;2023-08-21T07:29:55;12.20;;;8.90;;
19193;SDS011;9729;52.296;13.260;2023-08-21T07:32:22;13.43;;;8.48;;
19193;SDS011;9729;52.296;13.260;2023-08-21T07:34:51;14.00;;;8.98;;
19193;SDS011;9729;52.296;13.260;2023-08-21T07:37:18;12.68;;;8.70;;
19193;SDS011;9729;52.296;13.260;2023-08-21T07:39:44;11.90;;;8.50;;
19193;SDS011;9729;52.296;13.260;2023-08-21T07:42:12;13.95;;;8.05;;
19193;SDS011;9729;52.296;13.260;2023-08-21T07:44:38;10.50;;;8.10;;
19193;SDS011;9729;52.296;13.260;2023-08-21T07:47:05;13.15;;;8.65;;
19193;SDS011;9729;52.296;13.260;2023-08-21T07:49:31;11.13;;;8.55;;
19193;SDS011;9729;52.296;13.260;2023-08-21T07:51:58;12.40;;;8.55;;
19193;SDS011;9729;52.296;13.260;2023-08-21T07:54:24;13.07;;;9.85;;
19193;SDS011;9729;52.296;13.260;2023-08-21T07:56:51;9.95;;;8.90;;
19193;SDS011;9729;52.296;13.260;2023-08-21T07:59:18;12.07;;;8.75;;
19193;SDS011;9729;52.296;13.260;2023-08-21T08:01:45;11.63;;;7.72;;
19193;SDS011;9729;52.296;13.260;2023-08-21T08:04:12;13.68;;;7.38;;
19193;SDS011;9729;52.296;13.260;2023-08-21T08:06:38;7.75;;;6.88;;
19193;SDS011;9729;52.296;13.260;2023-08-21T08:09:04;12.98;;;7.40;;
19193;SDS011;9729;52.296;13.260;2023-08-21T08:11:31;8.98;;;6.65;;
19193;SDS011;9729;52.296;13.260;2023-08-21T08:13:58;12.40;;;5.88;;
19193;SDS011;9729;52.296;13.260;2023-08-21T08:16:25;9.98;;;5.95;;
19193;SDS011;9729;52.296;13.260;2023-08-21T08:18:52;14.52;;;6.32;;
19193;SDS011;9729;52.296;13.260;2023-08-21T08:21:18;12.25;;;5.35;;
19193;SDS011;9729;52.296;13.260;2023-08-21T08:23:45;9.90;;;5.88;;
19193;SDS011;9729;52.296;13.260;2023-08-21T08:26:11;10.38;;;6.30;;
19193;SDS011;9729;52.296;13.260;2023-08-21T08:28:38;6.97;;;4.90;;
19193;SDS011;9729;52.296;13.260;2023-08-21T08:31:04;5.93;;;5.43;;
19193;SDS011;9729;52.296;13.260;2023-08-21T08:33:32;5.53;;;4.68;;
19193;SDS011;9729;52.296;13.260;2023-08-21T08:35:58;5.82;;;4.95;;
19193;SDS011;9729;52.296;13.260;2023-08-21T08:38:24;15.95;;;5.72;;
19193;SDS011;9729;52.296;13.260;2023-08-21T08:40:51;9.05;;;5.05;;
19193;SDS011;9729;52.296;13.260;2023-08-21T08:43:20;6.82;;;5.70;;
19193;SDS011;9729;52.296;13.260;2023-08-21T08:45:47;8.60;;;5.40;;
19193;SDS011;9729;52.296;13.260;2023-08-21T08:48:15;8.93;;;5.45;;
19193;SDS011;9729;52.296;13.260;2023-08-21T08:50:43;8.27;;;5.43;;
19193;SDS011;9729;52.296;13.260;2023-08-21T08:53:11;6.35;;;4.95;;
19193;SDS011;9729;52.296;13.260;2023-08-21T08:55:38;7.82;;;4.30;;
19193;SDS011;9729;52.296;13.260;2023-08-21T08:58:05;7.88;;;4.10;;
19193;SDS011;9729;52.296;13.260;2023-08-21T09:00:31;4.97;;;3.40;;
19193;SDS011;9729;52.296;13.260;2023-08-21T09:02:57;8.38;;;3.33;;
19193;SDS011;9729;52.296;13.260;2023-08-21T09:05:24;6.72;;;3.78;;
19193;SDS011;9729;52.296;13.260;2023-08-21T09:08:02;6.80;;;3.35;;
19193;SDS011;9729;52.296;13.260;2023-08-21T09:10:30;10.02;;;3.10;;
19193;SDS011;9729;52.296;13.260;2023-08-21T09:12:57;5.47;;;3.05;;
19193;SDS011;9729;52.296;13.260;2023-08-21T09:15:27;5.47;;;3.17;;
19193;SDS011;9729;52.296;13.260;2023-08-21T09:17:54;5.45;;;3.70;;
19193;SDS011;9729;52.296;13.260;2023-08-21T09:20:21;6.35;;;3.03;;
19193;SDS011;9729;52.296;13.260;2023-08-21T09:22:52;4.70;;;3.38;;
19193;SDS011;9729;52.296;13.260;2023-08-21T09:25:20;3.63;;;2.80;;
19193;SDS011;9729;52.296;13.260;2023-08-21T09:27:46;5.70;;;3.10;;
19193;SDS011;9729;52.296;13.260;2023-08-21T09:30:17;3.65;;;2.78;;
19193;SDS011;9729;52.296;13.260;2023-08-21T09:32:53;4.45;;;2.90;;
19193;SDS011;9729;52.296;13.260;2023-08-21T09:35:21;4.85;;;3.50;;
19193;SDS011;9729;52.296;13.260;2023-08-21T09:37:48;6.00;;;3.10;;
19193;SDS011;9729;52.296;13.260;2023-08-21T09:40:14;7.60;;;3.28;;
19193;SDS011;9729;52.296;13.260;2023-08-21T09:42:42;4.68;;;3.30;;
19193;SDS011;9729;52.296;13.260;2023-08-21T09:45:09;4.82;;;3.22;;
19193;SDS011;9729;52.296;13.260;2023-08-21T09:47:35;3.10;;;2.90;;
19193;SDS011;9729;52.296;13.260;2023-08-21T09:50:03;7.57;;;3.90;;
19193;SDS011;9729;52.296;13.260;2023-08-21T09:52:30;3.55;;;2.88;;
19193;SDS011;9729;52.296;13.260;2023-08-21T09:54:56;5.28;;;2.67;;
19193;SDS011;9729;52.296;13.260;2023-08-21T09:57:23;4.13;;;2.58;;
19193;SDS011;9729;52.296;13.260;2023-08-21T09:59:52;3.85;;;3.40;;
19193;SDS011;9729;52.296;13.260;2023-08-21T10:02:19;3.72;;;2.97;;
19193;SDS011;9729;52.296;13.260;2023-08-21T10:04:46;5.18;;;3.70;;
19193;SDS011;9729;52.296;13.260;2023-08-21T10:07:14;4.93;;;3.70;;
19193;SDS011;9729;52.296;13.260;2023-08-21T10:09:42;3.55;;;2.92;;
19193;SDS011;9729;52.296;13.260;2023-08-21T10:12:09;4.65;;;3.22;;
19193;SDS011;9729;52.296;13.260;2023-08-21T10:14:36;3.50;;;2.60;;
19193;SDS011;9729;52.296;13.260;2023-08-21T10:17:04;4.53;;;3.08;;
19193;SDS011;9729;52.296;13.260;2023-08-21T10:19:33;6.18;;;4.05;;
19193;SDS011;9729;52.296;13.260;2023-08-21T10:21:59;4.30;;;3.88;;
19193;SDS011;9729;52.296;13.260;2023-08-21T10:24:26;3.42;;;3.10;;
19193;SDS011;9729;52.296;13.260;2023-08-21T10:26:54;4.90;;;3.22;;
19193;SDS011;9729;52.296;13.260;2023-08-21T10:29:24;3.25;;;2.85;;
19193;SDS011;9729;52.296;13.260;2023-08-21T10:31:58;3.58;;;3.22;;
19193;SDS011;9729;52.296;13.260;2023-08-21T10:34:30;3.30;;;3.03;;
19193;SDS011;9729;52.296;13.260;2023-08-21T10:37:08;6.68;;;3.15;;
19193;SDS011;9729;52.296;13.260;2023-08-21T10:39:39;6.70;;;2.95;;
19193;SDS011;9729;52.296;13.260;2023-08-21T10:42:08;3.83;;;2.80;;
19193;SDS011;9729;52.296;13.260;2023-08-21T10:44:48;4.15;;;3.20;;
19193;SDS011;9729;52.296;13.260;2023-08-21T10:47:17;8.43;;;2.78;;
19193;SDS011;9729;52.296;13.260;2023-08-21T10:49:46;5.43;;;3.28;;
19193;SDS011;9729;52.296;13.260;2023-08-21T10:52:14;2.85;;;2.60;;
19193;SDS011;9729;52.296;13.260;2023-08-21T10:54:44;5.55;;;2.80;;
19193;SDS011;9729;52.296;13.260;2023-08-21T10:57:11;4.65;;;2.50;;
19193;SDS011;9729;52.296;13.260;2023-08-21T10:59:38;4.47;;;2.85;;
19193;SDS011;9729;52.296;13.260;2023-08-21T11:02:04;9.65;;;3.08;;
19193;SDS011;9729;52.296;13.260;2023-08-21T11:04:39;5.80;;;2.72;;
19193;SDS011;9729;52.296;13.260;2023-08-21T11:07:07;7.47;;;4.07;;
19193;SDS011;9729;52.296;13.260;2023-08-21T11:09:34;4.60;;;3.10;;
19193;SDS011;9729;52.296;13.260;2023-08-21T11:12:04;6.63;;;3.42;;
19193;SDS011;9729;52.296;13.260;2023-08-21T11:14:31;5.60;;;3.00;;
19193;SDS011;9729;52.296;13.260;2023-08-21T11:16:58;6.82;;;3.25;;
19193;SDS011;9729;52.296;13.260;2023-08-21T11:19:25;6.93;;;3.22;;
19193;SDS011;9729;52.296;13.260;2023-08-21T11:21:51;4.82;;;3.10;;
19193;SDS011;9729;52.296;13.260;2023-08-21T11:24:19;3.40;;;3.20;;
19193;SDS011;9729;52.296;13.260;2023-08-21T11:26:46;5.10;;;2.60;;
19193;SDS011;9729;52.296;13.260;2023-08-21T11:29:13;4.63;;;2.95;;
19193;SDS011;9729;52.296;13.260;2023-08-21T11:31:39;3.03;;;2.55;;
19193;SDS011;9729;52.296;13.260;2023-08-21T11:34:05;4.22;;;2.83;;
19193;SDS011;9729;52.296;13.260;2023-08-21T11:36:32;6.07;;;3.05;;
19193;SDS011;9729;52.296;13.260;2023-08-21T11:38:58;5.50;;;3.05;;
19193;SDS011;9729;52.296;13.260;2023-08-21T11:41:26;4.90;;;3.70;;
19193;SDS011;9729;52.296;13.260;2023-08-21T11:43:53;4.40;;;3.58;;
19193;SDS011;9729;52.296;13.260;2023-08-21T11:46:23;4.43;;;3.40;;
19193;SDS011;9729;52.296;13.260;2023-08-21T11:48:49;3.53;;;3.22;;
19193;SDS011;9729;52.296;13.260;2023-08-21T11:51:18;6.20;;;4.05;;
19193;SDS011;9729;52.296;13.260;2023-08-21T11:53:44;8.10;;;3.25;;
19193;SDS011;9729;52.296;13.260;2023-08-21T11:56:13;7.10;;;3.00;;
19193;SDS011;9729;52.296;13.260;2023-08-21T11:58:42;18.30;;;3.17;;
19193;SDS011;9729;52.296;13.260;2023-08-21T12:01:10;6.38;;;3.40;;
19193;SDS011;9729;52.296;13.260;2023-08-21T12:03:37;5.35;;;3.38;;
19193;SDS011;9729;52.296;13.260;2023-08-21T12:06:04;5.40;;;2.50;;
19193;SDS011;9729;52.296;13.260;2023-08-21T12:08:31;2.75;;;2.55;;
19193;SDS011;9729;52.296;13.260;2023-08-21T12:10:58;5.35;;;2.80;;
19193;SDS011;9729;52.296;13.260;2023-08-21T12:13:24;4.18;;;3.50;;
19193;SDS011;9729;52.296;13.260;2023-08-21T12:15:52;7.03;;;3.22;;
19193;SDS011;9729;52.296;13.260;2023-08-21T12:18:18;4.13;;;3.10;;
19193;SDS011;9729;52.296;13.260;2023-08-21T12:20:44;5.57;;;3.05;;
19193;SDS011;9729;52.296;13.260;2023-08-21T12:23:11;3.75;;;3.03;;
19193;SDS011;9729;52.296;13.260;2023-08-21T12:25:37;3.30;;;3.05;;
19193;SDS011;9729;52.296;13.260;2023-08-21T12:28:06;5.38;;;3.45;;
19193;SDS011;9729;52.296;13.260;2023-08-21T12:30:33;5.20;;;3.88;;
19193;SDS011;9729;52.296;13.260;2023-08-21T12:33:01;4.13;;;3.72;;
19193;SDS011;9729;52.296;13.260;2023-08-21T12:35:27;6.15;;;3.80;;
19193;SDS011;9729;52.296;13.260;2023-08-21T12:37:56;5.32;;;3.25;;
19193;SDS011;9729;52.296;13.260;2023-08-21T12:40:23;5.78;;;3.90;;
19193;SDS011;9729;52.296;13.260;2023-08-21T12:42:49;4.55;;;3.30;;
19193;SDS011;9729;52.296;13.260;2023-08-21T12:45:16;4.60;;;3.58;;
19193;SDS011;9729;52.296;13.260;2023-08-21T12:47:42;4.68;;;3.72;;
19193;SDS011;9729;52.296;13.260;2023-08-21T12:50:10;5.30;;;3.88;;
19193;SDS011;9729;52.296;13.260;2023-08-21T12:52:36;4.75;;;4.28;;
19193;SDS011;9729;52.296;13.260;2023-08-21T12:55:04;5.28;;;4.13;;
19193;SDS011;9729;52.296;13.260;2023-08-21T12:57:31;7.22;;;3.95;;
19193;SDS011;9729;52.296;13.260;2023-08-21T12:59:57;5.57;;;4.30;;
19193;SDS011;9729;52.296;13.260;2023-08-21T13:02:23;4.18;;;3.05;;
19193;SDS011;9729;52.296;13.260;2023-08-21T13:04:52;3.30;;;3.03;;
19193;SDS011;9729;52.296;13.260;2023-08-21T13:07:19;3.28;;;2.85;;
19193;SDS011;9729;52.296;13.260;2023-08-21T13:09:46;4.13;;;2.90;;
19193;SDS011;9729;52.296;13.260;2023-08-21T13:12:12;5.95;;;3.20;;
19193;SDS011;9729;52.296;13.260;2023-08-21T13:14:38;3.33;;;3.03;;
19193;SDS011;9729;52.296;13.260;2023-08-21T13:17:06;4.30;;;3.90;;
19193;SDS011;9729;52.296;13.260;2023-08-21T13:19:32;9.75;;;4.05;;
19193;SDS011;9729;52.296;13.260;2023-08-21T13:21:58;7.72;;;3.45;;
19193;SDS011;9729;52.296;13.260;2023-08-21T13:24:26;6.05;;;3.50;;
19193;SDS011;9729;52.296;13.260;2023-08-21T13:26:53;3.45;;;3.15;;
19193;SDS011;9729;52.296;13.260;2023-08-21T13:29:19;4.95;;;3.35;;
19193;SDS011;9729;52.296;13.260;2023-08-21T13:31:46;5.90;;;3.53;;
19193;SDS011;9729;52.296;13.260;2023-08-21T13:34:12;6.75;;;4.05;;
19193;SDS011;9729;52.296;13.260;2023-08-21T13:36:39;5.97;;;3.65;;
19193;SDS011;9729;52.296;13.260;2023-08-21T13:39:05;6.05;;;3.88;;
19193;SDS011;9729;52.296;13.260;2023-08-21T13:41:33;4.05;;;3.42;;
19193;SDS011;9729;52.296;13.260;2023-08-21T13:44:00;4.38;;;3.65;;
19193;SDS011;9729;52.296;13.260;2023-08-21T13:46:26;4.05;;;3.75;;
19193;SDS011;9729;52.296;13.260;2023-08-21T13:48:52;8.98;;;3.78;;
19193;SDS011;9729;52.296;13.260;2023-08-21T13:51:19;9.45;;;4.00;;
19193;SDS011;9729;52.296;13.260;2023-08-21T13:53:45;3.80;;;3.60;;
19193;SDS011;9729;52.296;13.260;2023-08-21T13:56:11;5.95;;;3.63;;
19193;SDS011;9729;52.296;13.260;2023-08-21T13:58:39;6.60;;;4.25;;
19193;SDS011;9729;52.296;13.260;2023-08-21T14:01:06;5.18;;;3.47;;
19193;SDS011;9729;52.296;13.260;2023-08-21T14:03:33;4.15;;;3.20;;
19193;SDS011;9729;52.296;13.260;2023-08-21T14:05:59;4.60;;;3.20;;
19193;SDS011;9729;52.296;13.260;2023-08-21T14:08:26;4.00;;;3.15;;
19193;SDS011;9729;52.296;13.260;2023-08-21T14:10:52;4.35;;;2.92;;
19193;SDS011;9729;52.296;13.260;2023-08-21T14:13:19;3.13;;;2.78;;
19193;SDS011;9729;52.296;13.260;2023-08-21T14:15:46;3.97;;;3.25;;
19193;SDS011;9729;52.296;13.260;2023-08-21T14:18:13;6.13;;;3.70;;
19193;SDS011;9729;52.296;13.260;2023-08-21T14:20:39;4.10;;;2.72;;
19193;SDS011;9729;52.296;13.260;2023-08-21T14:23:05;5.93;;;2.63;;
19193;SDS011;9729;52.296;13.260;2023-08-21T14:25:32;5.03;;;2.50;;
19193;SDS011;9729;52.296;13.260;2023-08-21T14:27:58;4.43;;;2.83;;
19193;SDS011;9729;52.296;13.260;2023-08-21T14:30:25;6.40;;;3.15;;
19193;SDS011;9729;52.296;13.260;2023-08-21T14:32:52;5.88;;;3.00;;